sensor_id;sensor_type;location;lat;lon;timestamp;temperature;humidity
9095;DHT22;4583;49.796;9.902;2023-05-07T00:06:11;16.30;93.60
9095;DHT22;4583;49.796;9.902;2023-05-07T00:16:14;16.20;93.80
9095;DHT22;4583;49.796;9.902;2023-05-07T00:26:16;16.20;94.00
9095;DHT22;4583;49.796;9.902;2023-05-07T00:36:18;16.10;94.30
9095;DHT22;4583;49.796;9.902;2023-05-07T00:46:21;16.00;94.60
9095;DHT22;4583;49.796;9.902;2023-05-07T00:56:23;16.00;95.00
9095;DHT22;4583;49.796;9.902;2023-05-07T01:06:26;16.00;95.20
9095;DHT22;4583;49.796;9.902;2023-05-07T01:16:29;15.90;95.40
9095;DHT22;4583;49.796;9.902;2023-05-07T01:26:31;15.80;95.60
9095;DHT22;4583;49.796;9.902;2023-05-07T01:36:33;15.70;95.80
9095;DHT22;4583;49.796;9.902;2023-05-07T01:46:36;15.50;96.10
9095;DHT22;4583;49.796;9.902;2023-05-07T01:56:37;15.40;96.30
9095;DHT22;4583;49.796;9.902;2023-05-07T02:06:39;15.30;96.50
9095;DHT22;4583;49.796;9.902;2023-05-07T02:16:41;15.20;96.50
9095;DHT22;4583;49.796;9.902;2023-05-07T02:26:43;15.10;96.40
9095;DHT22;4583;49.796;9.902;2023-05-07T02:36:45;15.00;96.40
9095;DHT22;4583;49.796;9.902;2023-05-07T02:46:47;15.00;96.30
9095;DHT22;4583;49.796;9.902;2023-05-07T02:56:49;15.00;96.60
9095;DHT22;4583;49.796;9.902;2023-05-07T03:06:51;15.00;96.80
9095;DHT22;4583;49.796;9.902;2023-05-07T03:16:52;15.10;97.00
9095;DHT22;4583;49.796;9.902;2023-05-07T03:26:54;15.10;97.10
9095;DHT22;4583;49.796;9.902;2023-05-07T03:36:56;15.00;97.10
9095;DHT22;4583;49.796;9.902;2023-05-07T03:46:57;15.00;97.10
9095;DHT22;4583;49.796;9.902;2023-05-07T03:56:59;15.00;97.30
9095;DHT22;4583;49.796;9.902;2023-05-07T04:07:01;15.10;97.40
9095;DHT22;4583;49.796;9.902;2023-05-07T04:17:03;15.10;97.50
9095;DHT22;4583;49.796;9.902;2023-05-07T04:27:04;15.30;97.70
9095;DHT22;4583;49.796;9.902;2023-05-07T04:37:08;15.30;97.60
9095;DHT22;4583;49.796;9.902;2023-05-07T04:47:09;15.30;97.40
9095;DHT22;4583;49.796;9.902;2023-05-07T04:57:11;15.40;97.60
9095;DHT22;4583;49.796;9.902;2023-05-07T05:07:13;15.60;97.50
9095;DHT22;4583;49.796;9.902;2023-05-07T05:17:15;15.90;97.00
9095;DHT22;4583;49.796;9.902;2023-05-07T05:27:16;15.90;96.40
9095;DHT22;4583;49.796;9.902;2023-05-07T05:37:18;16.10;96.10
9095;DHT22;4583;49.796;9.902;2023-05-07T05:47:20;16.20;95.90
9095;DHT22;4583;49.796;9.902;2023-05-07T05:57:22;16.40;95.50
9095;DHT22;4583;49.796;9.902;2023-05-07T06:07:23;16.60;95.40
9095;DHT22;4583;49.796;9.902;2023-05-07T06:17:25;16.80;95.30
9095;DHT22;4583;49.796;9.902;2023-05-07T06:27:27;16.90;94.90
9095;DHT22;4583;49.796;9.902;2023-05-07T06:37:29;17.10;94.90
9095;DHT22;4583;49.796;9.902;2023-05-07T06:47:31;17.50;94.50
9095;DHT22;4583;49.796;9.902;2023-05-07T06:57:32;17.80;92.80
9095;DHT22;4583;49.796;9.902;2023-05-07T07:07:34;17.90;93.10
9095;DHT22;4583;49.796;9.902;2023-05-07T07:17:36;17.90;92.60
9095;DHT22;4583;49.796;9.902;2023-05-07T07:27:38;17.90;92.10
9095;DHT22;4583;49.796;9.902;2023-05-07T07:37:41;18.30;91.70
9095;DHT22;4583;49.796;9.902;2023-05-07T07:47:43;18.50;91.20
9095;DHT22;4583;49.796;9.902;2023-05-07T07:57:44;18.70;90.80
9095;DHT22;4583;49.796;9.902;2023-05-07T08:07:47;18.70;90.50
9095;DHT22;4583;49.796;9.902;2023-05-07T08:17:53;19.20;89.60
9095;DHT22;4583;49.796;9.902;2023-05-07T08:27:55;19.30;89.70
9095;DHT22;4583;49.796;9.902;2023-05-07T08:37:57;19.50;88.60
9095;DHT22;4583;49.796;9.902;2023-05-07T08:48:00;19.80;87.30
9095;DHT22;4583;49.796;9.902;2023-05-07T08:58:03;19.90;87.10
9095;DHT22;4583;49.796;9.902;2023-05-07T09:08:06;20.10;86.00
9095;DHT22;4583;49.796;9.902;2023-05-07T09:18:08;20.30;85.70
9095;DHT22;4583;49.796;9.902;2023-05-07T09:28:10;20.40;85.00
9095;DHT22;4583;49.796;9.902;2023-05-07T09:38:12;20.40;84.30
9095;DHT22;4583;49.796;9.902;2023-05-07T09:48:16;20.80;84.00
9095;DHT22;4583;49.796;9.902;2023-05-07T09:58:20;21.10;82.70
9095;DHT22;4583;49.796;9.902;2023-05-07T10:08:24;21.30;81.30
9095;DHT22;4583;49.796;9.902;2023-05-07T10:18:26;21.50;80.60
9095;DHT22;4583;49.796;9.902;2023-05-07T10:28:37;21.80;80.00
9095;DHT22;4583;49.796;9.902;2023-05-07T10:38:40;22.00;78.40
9095;DHT22;4583;49.796;9.902;2023-05-07T11:09:22;22.40;76.60
9095;DHT22;4583;49.796;9.902;2023-05-07T11:19:53;22.40;76.00
9095;DHT22;4583;49.796;9.902;2023-05-07T11:29:55;22.40;75.20
9095;DHT22;4583;49.796;9.902;2023-05-07T11:40:09;22.50;74.60
9095;DHT22;4583;49.796;9.902;2023-05-07T11:50:12;22.80;73.50
9095;DHT22;4583;49.796;9.902;2023-05-07T12:00:16;23.10;72.50
9095;DHT22;4583;49.796;9.902;2023-05-07T12:10:18;23.30;71.60
9095;DHT22;4583;49.796;9.902;2023-05-07T12:20:21;23.80;70.30
9095;DHT22;4583;49.796;9.902;2023-05-07T12:30:23;24.00;69.40
9095;DHT22;4583;49.796;9.902;2023-05-07T12:40:25;24.20;67.50
9095;DHT22;4583;49.796;9.902;2023-05-07T12:50:31;24.60;65.80
9095;DHT22;4583;49.796;9.902;2023-05-07T13:00:35;24.70;63.60
9095;DHT22;4583;49.796;9.902;2023-05-07T13:10:36;24.70;62.20
9095;DHT22;4583;49.796;9.902;2023-05-07T13:20:38;24.80;60.80
9095;DHT22;4583;49.796;9.902;2023-05-07T13:30:40;25.50;59.30
9095;DHT22;4583;49.796;9.902;2023-05-07T13:40:42;25.50;58.10
9095;DHT22;4583;49.796;9.902;2023-05-07T13:50:43;25.20;57.40
9095;DHT22;4583;49.796;9.902;2023-05-07T14:00:45;25.80;56.20
9095;DHT22;4583;49.796;9.902;2023-05-07T14:10:47;26.80;54.40
9095;DHT22;4583;49.796;9.902;2023-05-07T14:20:49;28.70;50.70
9095;DHT22;4583;49.796;9.902;2023-05-07T14:30:51;29.70;47.80
9095;DHT22;4583;49.796;9.902;2023-05-07T14:40:52;30.00;45.80
9095;DHT22;4583;49.796;9.902;2023-05-07T14:50:57;31.60;44.00
9095;DHT22;4583;49.796;9.902;2023-05-07T15:00:59;32.60;42.50
9095;DHT22;4583;49.796;9.902;2023-05-07T15:11:01;29.60;45.50
9095;DHT22;4583;49.796;9.902;2023-05-07T15:21:02;27.60;48.00
9095;DHT22;4583;49.796;9.902;2023-05-07T15:31:04;26.30;50.80
9095;DHT22;4583;49.796;9.902;2023-05-07T15:41:07;25.40;51.90
9095;DHT22;4583;49.796;9.902;2023-05-07T15:51:09;24.70;53.20
9095;DHT22;4583;49.796;9.902;2023-05-07T16:01:11;24.20;54.20
9095;DHT22;4583;49.796;9.902;2023-05-07T16:11:13;23.70;55.20
9095;DHT22;4583;49.796;9.902;2023-05-07T16:21:14;23.40;56.10
9095;DHT22;4583;49.796;9.902;2023-05-07T16:31:17;23.20;56.90
9095;DHT22;4583;49.796;9.902;2023-05-07T16:41:20;22.80;57.70
9095;DHT22;4583;49.796;9.902;2023-05-07T16:51:22;22.60;58.20
9095;DHT22;4583;49.796;9.902;2023-05-07T17:01:25;22.40;58.60
9095;DHT22;4583;49.796;9.902;2023-05-07T17:11:26;22.30;59.10
9095;DHT22;4583;49.796;9.902;2023-05-07T17:21:31;22.20;59.50
9095;DHT22;4583;49.796;9.902;2023-05-07T17:31:33;22.10;59.90
9095;DHT22;4583;49.796;9.902;2023-05-07T17:41:35;21.90;60.30
9095;DHT22;4583;49.796;9.902;2023-05-07T17:51:37;21.90;61.10
9095;DHT22;4583;49.796;9.902;2023-05-07T18:01:54;21.80;61.80
9095;DHT22;4583;49.796;9.902;2023-05-07T18:11:56;21.60;62.30
9095;DHT22;4583;49.796;9.902;2023-05-07T18:21:58;21.30;66.40
9095;DHT22;4583;49.796;9.902;2023-05-07T18:31:59;21.00;68.80
9095;DHT22;4583;49.796;9.902;2023-05-07T18:42:01;20.60;70.50
9095;DHT22;4583;49.796;9.902;2023-05-07T18:52:05;20.50;72.20
9095;DHT22;4583;49.796;9.902;2023-05-07T19:02:07;20.10;73.40
9095;DHT22;4583;49.796;9.902;2023-05-07T19:12:09;20.20;72.00
9095;DHT22;4583;49.796;9.902;2023-05-07T19:22:10;20.20;69.90
9095;DHT22;4583;49.796;9.902;2023-05-07T19:32:12;20.10;69.40
9095;DHT22;4583;49.796;9.902;2023-05-07T19:42:14;20.00;68.20
9095;DHT22;4583;49.796;9.902;2023-05-07T19:52:16;19.90;67.90
9095;DHT22;4583;49.796;9.902;2023-05-07T20:02:18;19.90;68.10
9095;DHT22;4583;49.796;9.902;2023-05-07T20:12:20;19.80;68.20
9095;DHT22;4583;49.796;9.902;2023-05-07T20:22:22;19.70;68.40
9095;DHT22;4583;49.796;9.902;2023-05-07T20:32:24;19.60;68.60
9095;DHT22;4583;49.796;9.902;2023-05-07T20:42:27;19.50;68.80
9095;DHT22;4583;49.796;9.902;2023-05-07T20:52:28;19.30;68.90
9095;DHT22;4583;49.796;9.902;2023-05-07T21:02:30;19.20;68.90
9095;DHT22;4583;49.796;9.902;2023-05-07T21:12:32;19.10;69.10
9095;DHT22;4583;49.796;9.902;2023-05-07T21:22:33;18.90;69.00
9095;DHT22;4583;49.796;9.902;2023-05-07T21:32:35;18.80;69.20
9095;DHT22;4583;49.796;9.902;2023-05-07T21:42:37;18.60;69.50
9095;DHT22;4583;49.796;9.902;2023-05-07T21:52:38;18.60;69.80
9095;DHT22;4583;49.796;9.902;2023-05-07T22:02:40;18.50;70.00
9095;DHT22;4583;49.796;9.902;2023-05-07T22:12:42;18.40;70.20
9095;DHT22;4583;49.796;9.902;2023-05-07T22:22:49;18.20;70.40
9095;DHT22;4583;49.796;9.902;2023-05-07T22:32:53;18.10;70.20
9095;DHT22;4583;49.796;9.902;2023-05-07T22:42:55;18.10;70.80
9095;DHT22;4583;49.796;9.902;2023-05-07T22:52:56;18.00;71.30
9095;DHT22;4583;49.796;9.902;2023-05-07T23:02:58;17.90;71.80
9095;DHT22;4583;49.796;9.902;2023-05-07T23:13:00;17.70;72.10
9095;DHT22;4583;49.796;9.902;2023-05-07T23:23:02;17.70;72.50
9095;DHT22;4583;49.796;9.902;2023-05-07T23:33:04;17.60;72.90
9095;DHT22;4583;49.796;9.902;2023-05-07T23:43:06;17.50;73.30
9095;DHT22;4583;49.796;9.902;2023-05-07T23:53:08;17.50;73.90
